Terminal Aerodrome Forecast
Issued by NWS

Home | Current Version | Previous Version | Text Only | Print | Product List | Glossary On
Versions: 1 2 3 4 5 6 7 8 9 10 11 12 13 14 15 16 17 18 19 20 21
000
FTUS46 KPDT 222321 CCA
TAFYKM
TAF COR
KYKM 222321Z 2300/2324 29011G17KT P6SM FEW070 SCT250
     FM230300 27010KT P6SM SCT150
     FM230900 27006KT 6SM BR FEW008 SCT100
     FM231600 VRB03KT P6SM SKC=

USA.gov is the U.S. government's official web portal to all federal, state and local government web resources and services.